This is the latest recevied weather packets stored in our database for station/object GW1549. If no packets are shown the sender has not sent any weather packets the latest 10 day(s).
| Time | Temp. | Humidity | Pressure | Rain* | Wind** | Luminosity | Snow |
|---|---|---|---|---|---|---|---|
| 1777564461 | 10.56° C | 74% | 1010.4 hPa | 0 mm | - | - | - |
| 1777555118 | 8.33° C | 81% | 1009.4 hPa | 0 mm | - | - | - |
| 1777554031 | 7.78° C | 85% | 1009.1 hPa | 0 mm | - | - | - |
| 1777552218 | 7.22° C | 87% | 1009.1 hPa | 0 mm | - | - | - |
| 1777547553 | 6.11° C | 92% | 1007.7 hPa | 0 mm | - | - | - |
| 1777543972 | 6.67° C | 89% | 1007.1 hPa | 0 mm | - | - | - |
| 1777541793 | 7.22° C | 91% | 1006.7 hPa | 0 mm | - | - | - |
| 1777541092 | 7.22° C | 91% | 1006.7 hPa | 0 mm | - | - | - |
| 1777539636 | 7.78° C | 91% | 1007.1 hPa | 0 mm | - | - | - |
| 1777533490 | 9.44° C | 89% | 1007.1 hPa | 0 mm | - | - | - |
| 1777533164 | 10° C | 88% | 1007.1 hPa | 0 mm | - | - | - |
| 1777529177 | 10.56° C | 87% | 1007.4 hPa | 0 mm | - | - | - |
| 1777525575 | 11.11° C | 90% | 1007.1 hPa | 0 mm | - | - | - |
| 1777523807 | 11.67° C | 86% | 1007.1 hPa | 0 mm | - | - | - |
| 1777522339 | 12.22° C | 88% | 1007.1 hPa | 0 mm | - | - | - |
| 1777519854 | 12.22° C | 90% | 1007.1 hPa | 4.57 mm | - | - | - |
| 1777518740 | 12.22° C | 89% | 1007.1 hPa | 4.57 mm | - | - | - |
| 1777518380 | 12.78° C | 89% | 1007.1 hPa | 4.57 mm | - | - | - |
| 1777515868 | 12.78° C | 92% | 1006.7 hPa | 4.57 mm | - | - | - |
| 1777515498 | 12.78° C | 94% | 1006.7 hPa | 4.57 mm | - | - | - |
| 1777515131 | 12.78° C | 96% | 1006.4 hPa | 4.57 mm | - | - | - |
| 1777512972 | 13.33° C | 96% | 1006.4 hPa | 4.57 mm | - | - | - |
| 1777507957 | 14.44° C | 89% | 1005 hPa | 4.57 mm | - | - | - |
| 1777507230 | 14.44° C | 88% | 1005 hPa | 4.57 mm | - | - | - |
| 1777506139 | 15° C | 88% | 1004.7 hPa | 4.57 mm | - | - | - |
* Rain since midnight (hover to see other rain measurements)
** Current wind speed in m/s (hover to see current wind gust speed)